Time;durP1;ratioP1;P1;durP2;ratioP2;P2;SDS_P1;SDS_P2;PMS_P1;PMS_P2;Temp;Humidity;BMP_temperature;BMP_pressure;BME280_temperature;BME280_humidity;BME280_pressure;Samples;Min_cycle;Max_cycle;Signal;HPM_P1;HPM_P2
2024/04/23 00:01:50;;;;;;;5.25;3.50;;;;;;;9.61;83.54;94683.25;5494615;26;19993;-62
2024/04/23 00:04:15;;;;;;;5.85;3.60;;;;;;;9.58;83.89;94679.16;5515824;26;19994;-62
2024/04/23 00:06:40;;;;;;;5.80;3.60;;;;;;;9.55;83.97;94679.38;5511716;26;20102;-62
2024/04/23 00:09:06;;;;;;;4.40;3.35;;;;;;;9.49;84.06;94660.91;5526091;26;19990;-62
2024/04/23 00:11:31;;;;;;;4.72;3.13;;;;;;;9.57;84.43;94671.47;5494485;26;19989;-62
2024/04/23 00:13:57;;;;;;;4.90;3.60;;;;;;;9.58;84.89;94678.31;5505011;26;20017;-62
2024/04/23 00:16:23;;;;;;;6.68;3.90;;;;;;;9.46;84.83;94681.91;5491671;26;20030;-63
2024/04/23 00:18:49;;;;;;;5.03;3.67;;;;;;;9.37;85.78;94666.13;5457660;26;20002;-62
2024/04/23 00:21:14;;;;;;;4.63;3.60;;;;;;;9.58;86.31;94657.56;5488238;26;19990;-62
2024/04/23 00:23:40;;;;;;;5.60;3.90;;;;;;;9.59;86.25;94669.59;5485763;26;20021;-62
2024/04/23 00:26:05;;;;;;;5.32;3.90;;;;;;;9.58;85.94;94666.19;5493893;25;20001;-62
2024/04/23 00:28:30;;;;;;;8.25;3.63;;;;;;;9.66;87.35;94665.53;5527113;26;20069;-62
2024/04/23 00:30:56;;;;;;;6.50;4.05;;;;;;;9.59;86.86;94667.00;5490396;26;20344;-62
2024/04/23 00:33:21;;;;;;;4.72;4.15;;;;;;;9.67;87.66;94667.19;5427546;26;20026;-62
2024/04/23 00:35:46;;;;;;;4.93;4.00;;;;;;;9.56;88.18;94668.06;5457990;26;20030;-62
2024/04/23 00:38:12;;;;;;;5.32;4.18;;;;;;;9.64;87.81;94664.88;5446566;26;20008;-62
2024/04/23 00:40:37;;;;;;;6.78;5.05;;;;;;;9.63;86.39;94671.78;5513666;26;20023;-62
2024/04/23 00:43:03;;;;;;;7.93;5.10;;;;;;;9.69;86.51;94664.47;5489800;26;20099;-62
2024/04/23 00:45:31;;;;;;;5.93;4.60;;;;;;;9.34;87.45;94665.56;5489860;26;20001;-62
2024/04/23 00:47:56;;;;;;;6.10;4.78;;;;;;;9.20;88.89;94673.63;5492760;26;20009;-62
2024/04/23 00:50:22;;;;;;;7.82;5.13;;;;;;;9.18;89.50;94660.78;5521392;26;20003;-62
2024/04/23 00:52:47;;;;;;;5.22;4.40;;;;;;;9.51;89.32;94662.44;5461599;26;20447;-62
2024/04/23 00:55:12;;;;;;;6.25;4.68;;;;;;;9.40;88.65;94668.47;5492853;26;19993;-62
2024/04/23 00:57:39;;;;;;;6.72;4.78;;;;;;;9.39;89.86;94671.22;5463225;26;20021;-62
2024/04/23 01:00:05;;;;;;;5.03;4.25;;;;;;;9.60;89.56;94660.84;5492703;26;19994;-62
2024/04/23 01:02:30;;;;;;;6.18;4.65;;;;;;;9.58;88.44;94648.03;5526285;26;20303;-62
2024/04/23 01:04:56;;;;;;;6.32;4.78;;;;;;;9.34;89.60;94645.66;5493564;26;19997;-62
2024/04/23 01:07:21;;;;;;;5.25;4.20;;;;;;;9.45;89.60;94639.59;5487592;26;19997;-62
2024/04/23 01:09:47;;;;;;;5.47;3.88;;;;;;;9.49;89.46;94637.56;5489033;26;19990;-62
2024/04/23 01:12:12;;;;;;;5.90;4.43;;;;;;;9.50;89.79;94627.09;5457104;26;20027;-62
2024/04/23 01:14:38;;;;;;;6.32;4.68;;;;;;;9.59;89.71;94625.50;5427279;26;20004;-62
2024/04/23 01:17:03;;;;;;;7.57;4.55;;;;;;;9.55;89.81;94611.94;5441281;26;20090;-62
2024/04/23 01:19:39;;;;;;;5.75;4.50;;;;;;;9.52;89.64;94622.56;5493469;26;19989;-62
2024/04/23 01:22:12;;;;;;;9.80;5.15;;;;;;;9.55;89.28;94617.13;5491514;26;20462;-62
2024/04/23 01:25:03;;;;;;;5.55;4.65;;;;;;;9.58;89.13;94611.72;5462863;26;20061;-62
2024/04/23 01:27:28;;;;;;;6.53;4.55;;;;;;;9.55;88.81;94601.56;5489151;26;20022;-62
2024/04/23 01:29:54;;;;;;;6.78;4.35;;;;;;;9.63;89.01;94603.53;5427053;26;20018;-62
2024/04/23 01:32:20;;;;;;;5.07;4.25;;;;;;;9.66;89.07;94600.69;5446553;26;20004;-62
2024/04/23 01:34:45;;;;;;;5.18;4.25;;;;;;;9.69;89.15;94613.41;5485453;26;20002;-62
2024/04/23 01:37:10;;;;;;;5.80;4.78;;;;;;;9.68;88.94;94606.59;5399146;26;19998;-62
2024/04/23 01:39:36;;;;;;;5.88;4.88;;;;;;;9.74;87.67;94590.50;5493166;26;20002;-62
2024/04/23 01:42:01;;;;;;;7.13;5.20;;;;;;;9.66;88.42;94587.72;5462549;26;20465;-62
2024/04/23 01:44:27;;;;;;;6.47;4.97;;;;;;;9.69;88.49;94589.25;5461663;26;20005;-62
2024/04/23 01:46:52;;;;;;;6.03;4.97;;;;;;;9.59;88.74;94581.41;5492006;26;20472;-62
2024/04/23 01:49:18;;;;;;;5.32;4.57;;;;;;;9.58;88.32;94571.97;5460879;26;20021;-62
2024/04/23 01:51:43;;;;;;;5.63;5.03;;;;;;;9.65;88.52;94567.94;5525263;25;19989;-62
2024/04/23 01:54:08;;;;;;;8.13;4.90;;;;;;;9.61;88.05;94563.94;5474737;26;20002;-62
2024/04/23 01:56:34;;;;;;;5.78;4.95;;;;;;;9.40;88.68;94540.63;5426463;26;19990;-62
2024/04/23 01:58:59;;;;;;;5.78;4.70;;;;;;;9.35;87.72;94550.53;5491489;26;20069;-62
2024/04/23 02:01:25;;;;;;;5.40;4.82;;;;;;;9.45;88.21;94558.41;5490882;25;20017;-62
2024/04/23 02:03:50;;;;;;;5.40;4.88;;;;;;;9.44;87.52;94557.56;5456022;26;20034;-62
2024/04/23 02:06:16;;;;;;;6.40;4.82;;;;;;;9.51;86.93;94557.88;5456307;26;20026;-62
2024/04/23 02:08:41;;;;;;;6.40;5.13;;;;;;;9.58;87.88;94564.19;5471270;26;20074;-62
2024/04/23 02:11:06;;;;;;;5.65;4.93;;;;;;;9.55;86.40;94567.03;5491340;26;20123;-62
2024/04/23 02:13:32;;;;;;;6.10;5.20;;;;;;;9.63;88.01;94568.06;5462264;26;20434;-62
2024/04/23 02:15:57;;;;;;;5.20;4.70;;;;;;;9.61;88.97;94561.34;5491359;26;19997;-62
2024/04/23 02:18:22;;;;;;;5.82;4.93;;;;;;;9.65;88.14;94546.38;5525051;25;20001;-62
2024/04/23 02:20:48;;;;;;;6.93;4.57;;;;;;;9.67;88.36;94537.53;5462235;26;20432;-62
2024/04/23 02:23:13;;;;;;;7.00;5.00;;;;;;;9.50;87.66;94533.72;5396377;26;20002;-62
2024/04/23 02:25:39;;;;;;;7.63;4.82;;;;;;;9.63;87.28;94543.91;5488157;26;20349;-62
2024/04/23 02:28:04;;;;;;;5.38;4.47;;;;;;;9.63;87.49;94546.50;5499507;26;20004;-62
2024/04/23 02:30:30;;;;;;;5.63;5.03;;;;;;;9.62;87.85;94534.47;5499412;26;20013;-62
2024/04/23 02:32:55;;;;;;;7.88;5.22;;;;;;;9.73;87.68;94516.25;5489310;26;20030;-62
2024/04/23 02:35:21;;;;;;;5.60;5.10;;;;;;;9.76;87.22;94512.56;5498360;26;20431;-62
2024/04/23 02:37:46;;;;;;;5.43;4.93;;;;;;;9.72;86.47;94519.81;5495970;26;19993;-62
2024/04/23 02:40:11;;;;;;;6.20;4.70;;;;;;;9.61;87.20;94509.47;5464181;26;20366;-62
2024/04/23 02:42:37;;;;;;;5.50;4.65;;;;;;;9.81;88.36;94541.56;5495908;26;20126;-62
2024/04/23 02:45:02;;;;;;;6.53;5.03;;;;;;;9.68;88.33;94556.50;5528372;26;20018;-62
2024/04/23 02:47:28;;;;;;;7.22;4.75;;;;;;;9.66;88.31;94540.22;5488114;26;20002;-62
2024/04/23 02:49:53;;;;;;;6.25;4.65;;;;;;;9.74;88.19;94536.03;5491346;26;20086;-62
2024/04/23 02:52:18;;;;;;;6.03;4.55;;;;;;;9.75;87.77;94542.88;5458924;26;20022;-62
2024/04/23 02:54:44;;;;;;;5.65;4.85;;;;;;;9.69;87.87;94545.16;5491268;26;20009;-62
2024/04/23 02:57:09;;;;;;;6.22;4.63;;;;;;;9.53;88.03;94540.44;5481853;26;20026;-62
2024/04/23 02:59:35;;;;;;;5.72;4.85;;;;;;;9.60;87.94;94557.94;5528580;26;20040;-63
2024/04/23 03:02:04;;;;;;;5.68;4.88;;;;;;;9.51;87.76;94563.91;5495710;26;19991;-62
2024/04/23 03:04:30;;;;;;;6.00;4.80;;;;;;;9.53;87.62;94556.00;5495519;26;20077;-62
2024/04/23 03:06:55;;;;;;;5.05;4.30;;;;;;;9.47;87.67;94541.78;5511673;26;20002;-62
2024/04/23 03:09:20;;;;;;;5.00;4.50;;;;;;;9.48;87.91;94550.38;5528050;26;20391;-62
2024/04/23 03:11:52;;;;;;;8.30;5.22;;;;;;;9.69;87.23;94540.78;5464984;26;20014;-62
2024/04/23 03:14:18;;;;;;;5.30;4.50;;;;;;;9.76;86.61;94533.31;5525798;26;20429;-62
2024/04/23 03:16:43;;;;;;;5.07;4.57;;;;;;;9.83;85.86;94530.09;5486853;26;19998;-62
2024/04/23 03:19:08;;;;;;;6.47;4.80;;;;;;;9.91;86.61;94541.59;5464836;26;20026;-62
2024/04/23 03:21:34;;;;;;;4.75;4.20;;;;;;;9.91;87.47;94541.59;5527822;25;20486;-62
2024/04/23 03:23:59;;;;;;;9.02;5.07;;;;;;;9.79;87.18;94535.66;5516118;26;19994;-62
2024/04/23 03:26:25;;;;;;;8.23;6.75;;;;;;;9.82;85.16;94538.81;5437711;26;20439;-62
2024/04/23 03:28:50;;;;;;;7.63;6.65;;;;;;;9.73;83.97;94541.38;5527372;26;20000;-62
2024/04/23 03:31:15;;;;;;;7.72;6.18;;;;;;;9.78;85.96;94534.84;5495050;25;19996;-62
2024/04/23 03:33:41;;;;;;;7.43;6.70;;;;;;;9.73;84.61;94557.75;5494025;26;20011;-62
2024/04/23 03:36:07;;;;;;;8.20;5.72;;;;;;;9.68;85.88;94553.91;5526749;26;19997;-62
2024/04/23 03:38:32;;;;;;;7.15;6.45;;;;;;;9.66;85.67;94554.00;5494464;26;20005;-62
2024/04/23 03:40:57;;;;;;;10.82;7.47;;;;;;;9.51;83.89;94552.72;5494511;26;20082;-62
2024/04/23 03:43:23;;;;;;;8.60;7.20;;;;;;;9.46;84.55;94560.03;5487398;26;20016;-62
2024/04/23 03:45:48;;;;;;;8.25;7.35;;;;;;;9.40;84.91;94551.00;5463427;26;20439;-62
2024/04/23 03:48:14;;;;;;;8.77;6.78;;;;;;;9.44;84.99;94567.94;5491533;26;20025;-62
2024/04/23 03:50:39;;;;;;;7.60;6.50;;;;;;;9.44;85.36;94562.75;5527530;26;20318;-62
2024/04/23 03:53:04;;;;;;;6.85;6.15;;;;;;;9.53;85.66;94554.22;5433154;26;20022;-62
2024/04/23 03:55:30;;;;;;;7.20;6.32;;;;;;;9.59;86.59;94550.31;5526678;26;19997;-62
2024/04/23 03:57:57;;;;;;;7.22;6.50;;;;;;;9.62;87.31;94550.84;5526808;26;19996;-62
2024/04/23 04:00:23;;;;;;;8.88;6.85;;;;;;;9.55;86.90;94543.72;5491508;26;20094;-62
2024/04/23 04:08:16;;;;;;;9.10;8.18;;;;;;;9.49;85.60;94534.66;5526638;25;20012;-62
2024/04/23 04:10:41;;;;;;;12.80;8.45;;;;;;;9.55;83.54;94535.94;5524279;25;20021;-62
2024/04/23 04:13:07;;;;;;;8.30;7.30;;;;;;;9.58;82.90;94522.69;5526184;25;20319;-62
2024/04/23 04:15:32;;;;;;;8.05;7.07;;;;;;;9.48;83.92;94529.63;5493550;26;20356;-62
2024/04/23 04:17:57;;;;;;;9.05;6.70;;;;;;;9.39;82.24;94521.66;5462379;26;20021;-62
2024/04/23 04:20:23;;;;;;;8.93;6.88;;;;;;;9.49;82.65;94526.88;5463727;26;20060;-62
2024/04/23 04:22:48;;;;;;;10.43;7.82;;;;;;;9.51;83.02;94529.38;5523802;25;20446;-62
2024/04/23 04:25:14;;;;;;;7.07;6.30;;;;;;;9.36;84.40;94524.50;5523808;26;20004;-62
2024/04/23 04:27:39;;;;;;;7.78;6.80;;;;;;;9.22;83.51;94526.56;5524195;25;20006;-62
2024/04/23 04:30:05;;;;;;;9.02;8.10;;;;;;;9.31;82.27;94521.47;5493798;26;20551;-62
2024/04/23 04:32:31;;;;;;;7.45;6.57;;;;;;;9.38;82.77;94514.81;5492855;26;19993;-62
2024/04/23 04:34:56;;;;;;;6.55;5.93;;;;;;;9.39;83.01;94513.06;5490934;26;20034;-62
2024/04/23 04:37:22;;;;;;;8.75;6.97;;;;;;;9.48;84.45;94519.25;5515421;25;19994;-62
2024/04/23 04:39:47;;;;;;;10.05;7.20;;;;;;;9.43;84.74;94518.81;5522257;26;20002;-64
2024/04/23 04:42:12;;;;;;;9.88;7.07;;;;;;;9.27;84.57;94503.69;5530198;25;20029;-62
2024/04/23 04:44:38;;;;;;;8.73;7.82;;;;;;;9.32;83.46;94507.53;5521416;26;21608;-62
2024/04/23 04:47:03;;;;;;;7.95;7.15;;;;;;;9.47;85.32;94534.00;5498824;25;20094;-62
2024/04/23 04:49:28;;;;;;;9.63;8.00;;;;;;;9.51;85.14;94539.75;5519543;25;20470;-61
2024/04/23 04:51:54;;;;;;;11.32;8.75;;;;;;;9.50;82.88;94548.44;5462276;26;20002;-61
2024/04/23 04:54:20;;;;;;;9.30;7.70;;;;;;;9.33;84.19;94550.69;5491252;26;20020;-62
2024/04/23 04:56:45;;;;;;;9.48;8.48;;;;;;;9.38;84.80;94571.03;5526555;25;19998;-62
2024/04/23 04:59:10;;;;;;;9.32;8.30;;;;;;;9.51;86.14;94587.22;5493777;26;19998;-61
2024/04/23 05:01:36;;;;;;;9.15;7.60;;;;;;;9.65;86.77;94574.91;5522186;26;20005;-61
2024/04/23 05:04:03;;;;;;;9.95;8.95;;;;;;;9.23;86.93;94554.16;5512716;25;20008;-61
2024/04/23 05:06:28;;;;;;;11.15;8.88;;;;;;;9.27;87.37;94548.56;5525069;25;19989;-62
2024/04/23 05:08:54;;;;;;;9.23;8.20;;;;;;;9.26;87.60;94552.13;5464460;25;19994;-61
2024/04/23 05:11:19;;;;;;;9.25;8.32;;;;;;;9.36;87.81;94560.81;5461939;25;19991;-61
2024/04/23 05:13:44;;;;;;;11.35;8.82;;;;;;;9.33;87.60;94560.22;5489637;26;20004;-61
2024/04/23 05:16:10;;;;;;;8.93;8.00;;;;;;;9.16;87.94;94557.25;5495559;26;20412;-62
2024/04/23 05:18:35;;;;;;;9.65;8.65;;;;;;;9.12;87.75;94549.84;5517149;25;19997;-61
2024/04/23 05:21:01;;;;;;;9.68;8.60;;;;;;;9.16;88.85;94538.25;5493794;26;19992;-61
2024/04/23 05:23:26;;;;;;;9.15;8.25;;;;;;;9.13;88.06;94538.50;5493218;26;20216;-61
2024/04/23 05:25:51;;;;;;;9.52;8.50;;;;;;;9.13;88.43;94548.88;5525717;26;20013;-61
2024/04/23 05:28:17;;;;;;;10.85;8.68;;;;;;;9.05;88.47;94543.50;5517089;25;20350;-62
2024/04/23 05:33:26;;;;;;;8.73;7.82;;;;;;;9.20;88.69;94544.84;5507728;26;20009;-61
2024/04/23 05:35:51;;;;;;;11.07;9.07;;;;;;;9.31;88.47;94541.38;5525219;26;20001;-61
2024/04/23 05:38:17;;;;;;;9.40;8.48;;;;;;;9.30;89.49;94553.50;5484133;26;20325;-62
2024/04/23 05:40:42;;;;;;;10.95;9.35;;;;;;;9.33;90.58;94555.88;5487547;26;19990;-62
2024/04/23 05:43:08;;;;;;;9.30;8.32;;;;;;;9.42;89.78;94550.84;5469290;26;19998;-62
2024/04/23 05:45:33;;;;;;;10.00;9.07;;;;;;;9.38;86.07;94522.59;5525267;26;20021;-62
2024/04/23 05:48:36;;;;;;;9.30;8.40;;;;;;;9.52;87.44;94508.47;5475367;26;20121;-62
2024/04/23 05:51:39;;;;;;;9.90;8.90;;;;;;;9.65;88.15;94518.66;5455962;26;20349;-64
2024/04/23 05:54:42;;;;;;;9.93;8.93;;;;;;;9.64;89.69;94517.03;5485154;26;19998;-62
2024/04/23 05:57:07;;;;;;;10.52;9.52;;;;;;;9.37;90.33;94526.13;5485776;26;19994;-62
2024/04/23 05:59:33;;;;;;;10.68;9.65;;;;;;;9.49;87.61;94507.91;5512714;26;20005;-62
2024/04/23 06:01:58;;;;;;;11.77;10.57;;;;;;;9.57;89.59;94516.69;5451977;26;20928;-62
2024/04/23 06:04:23;;;;;;;10.95;9.95;;;;;;;9.47;89.97;94531.41;5450020;26;20321;-62
2024/04/23 06:06:49;;;;;;;11.38;10.27;;;;;;;9.51;89.31;94547.50;5449233;26;20012;-61
2024/04/23 06:09:14;;;;;;;10.48;9.48;;;;;;;9.63;89.25;94556.88;5454724;26;20358;-62
2024/04/23 06:11:40;;;;;;;12.23;11.07;;;;;;;9.53;91.53;94554.22;5421018;26;20472;-61
2024/04/23 06:14:08;;;;;;;11.20;10.10;;;;;;;9.73;90.94;94562.94;5451556;26;20073;-62
2024/04/23 06:16:34;;;;;;;10.32;9.32;;;;;;;9.84;91.08;94557.66;5451767;26;19991;-62
2024/04/23 06:18:59;;;;;;;11.90;10.70;;;;;;;9.74;89.88;94569.75;5451433;26;20023;-62
2024/04/23 06:21:24;;;;;;;11.13;10.02;;;;;;;9.68;89.86;94548.72;5449031;26;20005;-61
2024/04/23 06:23:50;;;;;;;11.07;10.02;;;;;;;9.55;90.92;94525.56;5451197;26;20376;-62
2024/04/23 06:26:15;;;;;;;13.13;11.93;;;;;;;9.46;90.98;94518.56;5452310;26;20001;-61
2024/04/23 06:28:41;;;;;;;12.15;10.93;;;;;;;9.60;89.61;94518.22;5423594;26;19998;-61
2024/04/23 06:31:10;;;;;;;15.48;13.73;;;;;;;9.67;88.45;94511.59;5423650;26;20068;-62
2024/04/23 06:33:35;;;;;;;12.25;11.00;;;;;;;9.78;88.50;94518.47;5423166;26;19994;-61
2024/04/23 06:36:01;;;;;;;13.05;11.45;;;;;;;9.53;90.58;94543.03;5423259;26;20503;-62
2024/04/23 06:38:26;;;;;;;12.15;11.00;;;;;;;9.74;91.42;94568.94;5445062;26;19990;-62
2024/04/23 06:40:52;;;;;;;13.77;12.38;;;;;;;9.49;92.26;94583.13;5491944;26;19994;-61
2024/04/23 06:43:17;;;;;;;12.23;11.00;;;;;;;9.63;90.85;94583.63;5459499;26;20005;-61
2024/04/23 06:45:42;;;;;;;13.20;11.80;;;;;;;9.43;91.13;94562.88;5459974;26;20000;-61
2024/04/23 06:48:13;;;;;;;11.38;10.27;;;;;;;9.42;89.48;94567.25;5459202;26;20464;-61
2024/04/23 06:50:39;;;;;;;11.55;10.38;;;;;;;9.54;90.43;94583.56;5491509;26;20009;-62
2024/04/23 06:53:04;;;;;;;10.93;9.52;;;;;;;9.36;90.70;94580.69;5491354;26;20003;-61
2024/04/23 06:55:30;;;;;;;9.93;8.93;;;;;;;9.22;90.87;94576.66;5491458;26;20371;-61
2024/04/23 06:57:56;;;;;;;13.82;10.75;;;;;;;9.25;93.24;94575.56;5491446;26;20022;-62
2024/04/23 07:00:22;;;;;;;11.75;10.20;;;;;;;9.24;92.19;94566.16;5491631;26;19994;-61
2024/04/23 07:02:47;;;;;;;11.88;10.68;;;;;;;9.16;93.65;94571.94;5491287;26;20005;-61
2024/04/23 07:05:13;;;;;;;10.35;9.35;;;;;;;9.20;93.08;94575.94;5458624;26;19994;-61
2024/04/23 07:07:38;;;;;;;11.50;10.20;;;;;;;9.05;92.89;94574.59;5458826;26;19994;-62
2024/04/23 07:10:04;;;;;;;11.85;9.50;;;;;;;9.21;91.94;94562.03;5458685;26;20010;-62
2024/04/23 07:12:29;;;;;;;9.70;8.25;;;;;;;9.03;93.57;94548.81;5490848;26;20130;-61
2024/04/23 07:14:55;;;;;;;10.80;9.70;;;;;;;8.99;94.04;94546.59;5491052;26;20464;-61
2024/04/23 07:17:20;;;;;;;10.25;9.25;;;;;;;8.92;93.85;94528.94;5399178;26;19990;-61
2024/04/23 07:19:46;;;;;;;12.65;9.73;;;;;;;9.00;94.92;94524.91;5458607;26;20022;-61
2024/04/23 07:22:11;;;;;;;11.15;8.23;;;;;;;9.10;93.67;94510.25;5458857;26;19990;-61
2024/04/23 07:24:36;;;;;;;9.98;8.98;;;;;;;9.07;93.77;94502.75;5490682;26;19994;-62
2024/04/23 07:27:02;;;;;;;11.77;9.75;;;;;;;9.12;94.26;94490.22;5491090;26;20026;-61
2024/04/23 07:29:27;;;;;;;9.90;8.90;;;;;;;9.22;93.67;94496.31;5398907;26;20001;-61
2024/04/23 07:31:53;;;;;;;10.95;9.50;;;;;;;9.08;93.25;94488.81;5428808;26;20001;-61
2024/04/23 07:34:19;;;;;;;9.48;8.48;;;;;;;9.25;94.80;94485.69;5490465;26;20319;-61
2024/04/23 07:36:44;;;;;;;14.00;9.15;;;;;;;9.32;95.69;94484.22;5490790;26;20022;-62
2024/04/23 07:39:12;;;;;;;11.25;10.05;;;;;;;9.42;96.02;94471.31;5490589;26;20088;-62
2024/04/23 07:41:38;;;;;;;11.90;10.57;;;;;;;9.48;95.71;94470.00;5459670;26;20002;-62
2024/04/23 07:44:03;;;;;;;11.13;9.80;;;;;;;9.66;95.47;94470.19;5490596;26;20026;-61
2024/04/23 07:46:29;;;;;;;10.57;9.25;;;;;;;9.74;95.62;94471.19;5491009;26;19990;-62
2024/04/23 07:48:54;;;;;;;11.15;9.38;;;;;;;9.85;95.50;94463.31;5488598;26;20002;-62
2024/04/23 07:51:20;;;;;;;12.38;11.07;;;;;;;9.87;96.23;94462.38;5490693;26;19990;-61
2024/04/23 07:53:45;;;;;;;11.73;10.60;;;;;;;9.76;95.55;94458.91;5490818;26;20070;-62
2024/04/23 07:56:11;;;;;;;11.82;9.80;;;;;;;9.87;95.50;94464.97;5458536;26;20435;-62
2024/04/23 07:58:37;;;;;;;10.48;9.00;;;;;;;9.89;95.30;94457.84;5490621;26;20022;-63
2024/04/23 08:01:03;;;;;;;11.55;9.40;;;;;;;9.89;95.01;94458.72;5428698;26;20374;-62
2024/04/23 08:03:28;;;;;;;9.70;7.93;;;;;;;10.09;93.92;94444.00;5490427;26;20067;-62
2024/04/23 08:05:56;;;;;;;9.68;7.15;;;;;;;10.17;92.40;94456.28;5490622;26;20061;-62
2024/04/23 08:08:22;;;;;;;8.23;6.85;;;;;;;10.18;92.20;94450.97;5458478;26;20010;-62
2024/04/23 08:10:47;;;;;;;7.47;6.50;;;;;;;10.19;91.99;94439.63;5458474;26;20008;-62
2024/04/23 08:13:12;;;;;;;8.65;6.88;;;;;;;10.25;92.09;94433.94;5488336;26;20440;-62
2024/04/23 08:15:38;;;;;;;8.25;6.82;;;;;;;10.47;92.09;94426.88;5458242;26;19998;-62
2024/04/23 08:18:04;;;;;;;7.28;6.53;;;;;;;10.53;92.10;94439.34;5489980;26;20022;-62
2024/04/23 08:20:29;;;;;;;8.38;6.82;;;;;;;10.60;92.02;94437.81;5490229;26;19991;-62
2024/04/23 08:22:58;;;;;;;7.10;6.15;;;;;;;10.28;92.25;94435.47;5489671;26;19990;-62
2024/04/23 08:25:23;;;;;;;5.85;5.05;;;;;;;10.37;92.18;94426.88;5457899;26;20005;-62
2024/04/23 08:27:49;;;;;;;5.95;3.70;;;;;;;10.25;90.76;94420.97;5458063;26;19994;-62
2024/04/23 08:30:19;;;;;;;4.40;3.45;;;;;;;10.35;87.89;94427.97;5456951;26;20026;-63
2024/04/23 08:32:45;;;;;;;4.00;3.42;;;;;;;10.04;90.70;94428.81;5490033;26;20009;-62
2024/04/23 08:35:10;;;;;;;4.47;3.88;;;;;;;10.23;91.33;94438.44;5518512;26;19994;-62
2024/04/23 08:37:36;;;;;;;7.38;6.05;;;;;;;9.94;92.40;94445.31;5489546;26;20026;-62
2024/04/23 08:40:01;;;;;;;10.52;6.30;;;;;;;9.82;92.33;94422.06;5488096;26;20450;-62
2024/04/23 08:42:27;;;;;;;8.00;5.38;;;;;;;9.96;92.49;94414.88;5489634;26;19998;-62
2024/04/23 08:44:52;;;;;;;4.97;3.10;;;;;;;9.85;91.89;94421.81;5427384;26;20356;-62
2024/04/23 08:47:18;;;;;;;3.65;2.72;;;;;;;9.81;93.46;94441.19;5397708;26;20026;-62
2024/04/23 08:49:44;;;;;;;4.10;3.10;;;;;;;9.97;92.74;94440.69;5489765;26;20001;-62
2024/04/23 08:52:10;;;;;;;13.70;7.70;;;;;;;9.64;93.08;94449.59;5457824;26;20452;-62
2024/04/23 08:54:35;;;;;;;6.30;4.25;;;;;;;9.91;92.05;94450.78;5489531;26;20026;-62
2024/04/23 08:57:01;;;;;;;4.05;3.00;;;;;;;9.89;91.73;94443.13;5489377;26;20452;-62
2024/04/23 08:59:26;;;;;;;6.35;4.47;;;;;;;10.10;90.74;94448.22;5427597;26;20026;-62
2024/04/23 09:01:58;;;;;;;4.70;3.28;;;;;;;10.09;91.79;94435.41;5427171;26;20018;-62
2024/04/23 09:04:23;;;;;;;5.57;3.83;;;;;;;10.25;91.26;94459.91;5458304;26;20449;-62
2024/04/23 09:06:49;;;;;;;5.22;3.53;;;;;;;10.25;92.12;94453.84;5427290;26;20371;-62
2024/04/23 09:09:15;;;;;;;3.58;2.13;;;;;;;10.20;87.89;94438.69;5427502;26;19994;-62
2024/04/23 09:11:41;;;;;;;2.85;1.70;;;;;;;10.16;87.31;94452.88;5427877;26;20452;-62
2024/04/23 09:14:07;;;;;;;2.72;2.00;;;;;;;10.16;88.99;94447.69;5457532;26;20090;-62
2024/04/23 09:16:32;;;;;;;3.30;2.28;;;;;;;10.10;90.17;94450.81;5489194;26;20033;-62
2024/04/23 09:18:57;;;;;;;2.10;1.55;;;;;;;10.07;90.21;94446.72;5489200;26;19994;-62
2024/04/23 09:21:23;;;;;;;2.45;1.90;;;;;;;10.07;90.45;94431.16;5427108;26;19994;-62
2024/04/23 09:23:48;;;;;;;1.88;1.40;;;;;;;10.11;88.53;94421.31;5427068;26;20029;-61
2024/04/23 09:26:14;;;;;;;1.80;1.30;;;;;;;10.15;91.31;94417.50;5456803;26;19990;-62
2024/04/23 09:28:43;;;;;;;2.15;1.30;;;;;;;10.19;91.65;94405.91;5427087;26;20005;-62
2024/04/23 09:31:15;;;;;;;3.25;2.35;;;;;;;10.23;91.95;94420.25;5456822;26;19998;-62
2024/04/23 09:33:52;;;;;;;2.35;1.80;;;;;;;10.38;91.87;94427.69;5489097;26;19994;-62
2024/04/23 09:36:20;;;;;;;2.53;1.60;;;;;;;10.32;92.04;94403.09;5457126;26;20001;-62
2024/04/23 09:38:46;;;;;;;2.55;1.75;;;;;;;10.46;90.83;94425.22;5420693;26;20006;-62
2024/04/23 09:41:14;;;;;;;2.20;1.65;;;;;;;10.26;91.59;94421.78;5452344;26;20027;-62
2024/04/23 09:43:39;;;;;;;10.85;9.75;;;;;;;10.24;92.54;94437.47;5449579;26;19999;-62
2024/04/23 09:46:05;;;;;;;6.00;3.97;;;;;;;10.59;92.14;94435.38;5420651;26;20006;-62
2024/04/23 09:48:33;;;;;;;7.78;5.88;;;;;;;10.52;92.07;94435.06;5452113;26;20006;-62
2024/04/23 09:51:05;;;;;;;4.25;3.08;;;;;;;10.84;91.44;94450.41;5450933;26;19990;-62
2024/04/23 09:53:35;;;;;;;4.47;3.10;;;;;;;10.95;91.89;94446.84;5452314;26;20517;-62
2024/04/23 09:56:05;;;;;;;6.35;4.55;;;;;;;10.84;91.63;94442.59;5450617;26;19991;-63
2024/04/23 09:58:33;;;;;;;6.38;4.40;;;;;;;10.73;91.75;94435.78;5450345;26;20010;-62
2024/04/23 10:00:59;;;;;;;6.30;4.50;;;;;;;10.86;90.74;94422.47;5420948;26;19995;-62
2024/04/23 10:03:25;;;;;;;5.40;3.30;;;;;;;10.92;91.16;94405.50;5451779;26;19995;-62
2024/04/23 10:05:51;;;;;;;5.90;3.10;;;;;;;10.89;90.24;94398.00;5420550;26;19991;-62
2024/04/23 10:08:37;;;;;;;4.70;3.13;;;;;;;10.91;89.80;94386.50;5452263;26;20072;-62
2024/04/23 10:11:03;;;;;;;3.92;2.55;;;;;;;10.91;90.55;94385.69;5420578;26;20476;-62
2024/04/23 10:13:33;;;;;;;5.85;2.42;;;;;;;10.63;90.75;94385.59;5449990;26;19995;-62
2024/04/23 10:16:18;;;;;;;3.65;2.00;;;;;;;10.65;90.82;94381.09;5451848;26;20002;-62
2024/04/23 10:18:55;;;;;;;2.65;1.60;;;;;;;10.52;90.66;94373.56;5450309;26;20138;-62
2024/04/23 10:21:24;;;;;;;1.73;0.90;;;;;;;10.52;88.80;94364.94;5422153;26;20429;-62
2024/04/23 10:23:49;;;;;;;2.38;1.00;;;;;;;10.40;88.88;94355.69;5451787;26;19995;-62
2024/04/23 10:26:15;;;;;;;2.47;1.00;;;;;;;10.35;89.06;94361.25;5451604;26;20067;-62
2024/04/23 10:28:41;;;;;;;1.10;0.80;;;;;;;10.11;90.39;94361.63;5451285;26;20010;-62
2024/04/23 10:31:06;;;;;;;1.70;1.02;;;;;;;10.27;91.00;94356.75;5450199;26;19995;-62
2024/04/23 10:33:32;;;;;;;2.15;1.30;;;;;;;10.48;91.96;94361.81;5420176;26;20006;-62
2024/04/23 10:35:59;;;;;;;2.15;1.20;;;;;;;10.54;89.24;94368.25;5419810;26;19991;-62
2024/04/23 10:38:24;;;;;;;3.20;1.83;;;;;;;10.45;89.60;94350.91;5419764;26;19999;-62
2024/04/23 10:40:50;;;;;;;4.35;2.33;;;;;;;10.42;89.37;94346.78;5420188;26;19998;-63
2024/04/23 10:43:16;;;;;;;6.57;3.60;;;;;;;10.24;90.70;94353.59;5419886;26;19999;-62
2024/04/23 10:45:41;;;;;;;4.75;3.13;;;;;;;10.46;91.57;94362.91;5451502;26;19991;-62
2024/04/23 10:48:08;;;;;;;4.68;2.92;;;;;;;10.50;92.54;94351.28;5451495;26;19991;-62
2024/04/23 10:50:33;;;;;;;4.28;2.42;;;;;;;10.68;90.71;94354.81;5420325;26;20412;-62
2024/04/23 10:53:00;;;;;;;4.65;2.60;;;;;;;10.29;91.72;94352.25;5420078;26;19991;-62
2024/04/23 10:55:26;;;;;;;3.88;1.90;;;;;;;10.38;92.18;94337.63;5393955;26;20328;-62
2024/04/23 10:57:54;;;;;;;3.08;2.10;;;;;;;10.50;91.90;94351.28;5455181;26;20002;-61
2024/04/23 11:00:40;;;;;;;2.95;1.65;;;;;;;10.68;91.29;94349.63;5453293;26;19991;-62
2024/04/23 11:03:18;;;;;;;1.95;1.30;;;;;;;10.55;90.38;94336.09;5513463;25;19987;-62
2024/04/23 11:05:45;;;;;;;2.33;1.20;;;;;;;10.54;91.19;94320.69;5454754;26;20013;-62
2024/04/23 11:08:11;;;;;;;2.40;1.90;;;;;;;10.55;91.20;94299.75;5422861;26;20006;-62
2024/04/23 11:11:05;;;;;;;4.57;2.83;;;;;;;10.54;92.69;94286.91;5422901;26;20395;-62
2024/04/23 11:13:39;;;;;;;4.13;2.88;;;;;;;10.42;92.91;94273.25;5453076;26;20045;-62
2024/04/23 11:16:17;;;;;;;4.00;2.17;;;;;;;10.43;92.98;94280.09;5453115;26;20002;-62
2024/04/23 11:18:48;;;;;;;2.85;1.20;;;;;;;10.47;91.65;94260.66;5454423;26;20006;-62
2024/04/23 11:21:20;;;;;;;3.85;2.20;;;;;;;10.23;93.01;94251.53;5454778;26;20448;-62
2024/04/23 11:23:45;;;;;;;4.93;2.70;;;;;;;10.00;94.58;94243.22;5453021;26;19994;-62
2024/04/23 11:26:11;;;;;;;4.40;3.47;;;;;;;10.07;94.37;94246.06;5422414;26;20015;-61
2024/04/23 11:28:37;;;;;;;6.85;4.57;;;;;;;10.30;93.79;94238.84;5422776;26;20006;-62
2024/04/23 11:31:02;;;;;;;5.57;3.75;;;;;;;10.39;92.77;94222.44;5454110;26;20443;-62
2024/04/23 11:33:28;;;;;;;6.80;4.18;;;;;;;10.34;92.38;94221.22;5422556;26;19998;-62
2024/04/23 11:35:53;;;;;;;4.82;3.03;;;;;;;10.56;92.59;94213.09;5422461;26;19998;-62
2024/04/23 11:38:19;;;;;;;3.00;1.50;;;;;;;10.68;90.98;94198.97;5474135;26;19998;-62
2024/04/23 11:40:46;;;;;;;4.57;1.48;;;;;;;10.58;91.01;94208.56;5399136;26;20308;-62
2024/04/23 11:43:19;;;;;;;3.22;1.60;;;;;;;10.58;93.55;94210.34;5490533;26;19990;-62